ADDS METAR Data INFO
IDs: Format: Raw Decoded Include TAF

Data at: 2315 UTC 15 Jul 2018

KGKT 152255Z AUTO 34003KT 10SM CLR 30/23 A3001 RMK A01
KGKT 152235Z AUTO 00000KT 10SM CLR 29/23 A3001 RMK A01
KGKT 152215Z AUTO 00000KT 10SM CLR 29/23 A3002 RMK A01
KGKT 152155Z AUTO 00000KT 10SM FEW110 29/23 A3002 RMK A01
KGKT 152135Z AUTO 00000KT 10SM FEW055 SCT110 29/22 A3002 RMK A01
KGKT 152115Z AUTO 00000KT 10SM FEW050 FEW060 29/22 A3002 RMK A01
KGKT 152055Z AUTO 00000KT 10SM SCT046 30/21 A3001 RMK A01
KGKT 152035Z AUTO 12004KT 10SM FEW090 SCT120 31/22 A3002 RMK A01
KGKT 152015Z AUTO VRB03KT 10SM SCT048 SCT100 BKN120 30/22 A3002 RMK A01
KGKT 151955Z AUTO 00000KT 10SM OVC045 31/21 A3003 RMK A01
KGKT 151935Z AUTO 14003KT 10SM SCT044 BKN049 BKN060 31/21 A3004 RMK A01
KGKT 151915Z AUTO 00000KT 10SM FEW042 SCT050 BKN075 32/21 A3005 RMK A01
KGKT 151855Z AUTO 28004KT 10SM BKN043 BKN050 OVC060 31/21 A3005 RMK A01
KGKT 151835Z AUTO VRB04KT 10SM BKN047 BKN055 OVC090 31/21 A3006 RMK A01
KGKT 151815Z AUTO VRB03KT 10SM SCT044 BKN050 BKN060 31/20 A3006 RMK A01
KGKT 151755Z AUTO 34006KT 10SM FEW042 32/21 A3007 RMK A01
KGKT 151735Z AUTO VRB03KT 10SM FEW040 FEW055 32/21 A3008 RMK A01
KGKT 151715Z AUTO 32003KT 10SM FEW039 SCT048 BKN070 31/21 A3008 RMK A01
KGKT 151655Z AUTO 34006G11KT 10SM FEW039 FEW047 31/21 A3008 RMK A01
KGKT 151635Z AUTO 00000KT 10SM CLR 31/21 A3009 RMK A01
KGKT 151615Z AUTO 00000KT 10SM CLR 31/20 A3009 RMK A01
KGKT 151555Z AUTO 00000KT 10SM CLR 30/20 A3010 RMK A01
KGKT 151535Z AUTO 00000KT 10SM CLR 30/20 A3010 RMK A01
KGKT 151515Z AUTO 00000KT 10SM CLR 29/20 A3010 RMK A01
KGKT 151455Z AUTO 00000KT 10SM FEW055 28/21 A3010 RMK A01
KGKT 151435Z AUTO VRB04KT 10SM CLR 28/21 A3011 RMK A01
KGKT 151415Z AUTO 00000KT 10SM CLR 27/21 A3012 RMK A01
KGKT 151355Z AUTO 00000KT 10SM CLR 27/21 A3012 RMK A01
KGKT 151335Z AUTO 00000KT 10SM SCT065 26/21 A3012 RMK A01
KGKT 151315Z AUTO 00000KT 10SM BKN060 BKN070 25/21 A3013 RMK A01
KGKT 151255Z AUTO 00000KT 10SM FEW050 BKN060 24/21 A3013 RMK A01
KGKT 151235Z AUTO 00000KT 10SM FEW055 SCT065 24/20 A3013 RMK A01
KGKT 151215Z AUTO 00000KT 10SM FEW055 23/20 A3014 RMK A01
KGKT 151155Z AUTO 00000KT 10SM BKN055 22/20 A3014 RMK A01
KGKT 151135Z AUTO 00000KT 10SM OVC055 22/20 A3014 RMK A01
KGKT 151115Z AUTO 00000KT 10SM BKN055 21/20 A3013 RMK A01
KGKT 151055Z AUTO 00000KT 10SM CLR 20/20 A3013 RMK A01
KGKT 151035Z AUTO 00000KT 10SM FEW050 20/20 A3012 RMK A01
KGKT 151015Z AUTO 00000KT 10SM BKN050 21/20 A3011 RMK A01
KGKT 150955Z AUTO 00000KT 10SM SCT050 21/20 A3010 RMK A01
KGKT 150935Z AUTO 00000KT 10SM CLR 21/20 A3010 RMK A01
KGKT 150915Z AUTO 00000KT 10SM CLR 21/20 A3010 RMK A01
KGKT 150855Z AUTO 00000KT 10SM CLR 21/20 A3009 RMK A01
KGKT 150835Z AUTO 00000KT 10SM CLR 22/20 A3009 RMK A01
KGKT 150815Z AUTO 00000KT 10SM CLR 21/20 A3009 RMK A01
KGKT 150755Z AUTO 00000KT 10SM CLR 22/20 A3008 RMK A01
KGKT 150735Z AUTO 00000KT 10SM CLR 22/20 A3008 RMK A01
KGKT 150715Z AUTO 00000KT 10SM CLR 22/21 A3008 RMK A01
KGKT 150655Z AUTO 00000KT 10SM CLR 23/21 A3008 RMK A01
KGKT 150635Z AUTO 00000KT 10SM CLR 23/21 A3007 RMK A01
KGKT 150615Z AUTO 00000KT 10SM CLR 23/20 A3008 RMK A01
KGKT 150555Z AUTO 00000KT 10SM FEW080 FEW120 23/21 A3008 RMK A01
KGKT 150535Z AUTO 00000KT 10SM SCT080 BKN120 24/21 A3009 RMK A01
KGKT 150515Z AUTO 00000KT 10SM FEW070 FEW080 BKN120 25/20 A3010 RMK A01
KGKT 150455Z AUTO 00000KT 10SM BKN080 25/20 A3009 RMK A01
KGKT 150435Z AUTO 00000KT 10SM OVC080 25/20 A3010 RMK A01
KGKT 150415Z AUTO 00000KT 10SM OVC080 25/20 A3010 RMK A01
KGKT 150355Z AUTO 00000KT 10SM BKN080 25/20 A3010 RMK A01
KGKT 150335Z AUTO 00000KT 10SM BKN090 26/20 A3010 RMK A01
KGKT 150315Z AUTO 00000KT 10SM BKN090 OVC120 26/20 A3011 RMK A01
KGKT 150255Z AUTO 00000KT 10SM SCT090 OVC120 27/20 A3011 RMK A01
KGKT 150235Z AUTO 00000KT 10SM BKN110 27/21 A3011 RMK A01
KGKT 150215Z AUTO 21003KT 10SM OVC110 28/21 A3010 RMK A01
KGKT 150155Z AUTO 23006KT 10SM OVC110 27/21 A3010 RMK A01
KGKT 150135Z AUTO 23004KT 10SM BKN110 28/21 A3009 RMK A01
KGKT 150115Z AUTO 17003KT 10SM FEW110 27/21 A3008 RMK A01
KGKT 150055Z AUTO 00000KT 10SM CLR 27/21 A3007 RMK A01
KGKT 150035Z AUTO 00000KT 10SM CLR 28/21 A3006 RMK A01
KGKT 150015Z AUTO 00000KT 10SM CLR 29/21 A3006 RMK A01
KGKT 142355Z AUTO 00000KT 10SM CLR 30/21 A3006 RMK A01
KGKT 142335Z AUTO 00000KT 10SM CLR 30/21 A3006 RMK A01
KGKT 142315Z AUTO 15004KT 10SM CLR 30/21 A3005 RMK A01
KGKT 142255Z AUTO VRB04KT 10SM CLR 31/21 A3006 RMK A01
KGKT 142235Z AUTO 09004KT 10SM CLR 30/21 A3006 RMK A01
KGKT 142215Z AUTO VRB05KT 10SM SCT050 SCT060 BKN110 30/21 A3007 RMK A01
KGKT 142155Z AUTO 08004KT 10SM SCT050 SCT060 32/20 A3007 RMK A01
KGKT 142135Z AUTO VRB03KT 10SM CLR 32/20 A3007 RMK A01
KGKT 142115Z AUTO 00000KT 10SM CLR 31/20 A3007 RMK A01
KGKT 142055Z AUTO 00000KT 10SM FEW075 31/20 A3008 RMK A01
KGKT 142035Z AUTO 00000KT 10SM FEW070 SCT100 31/20 A3009 RMK A01
KGKT 142015Z AUTO 00000KT 10SM SCT100 31/20 A3009 RMK A01
KGKT 141955Z AUTO 00000KT 10SM FEW100 31/20 A3010 RMK A01
KGKT 141935Z AUTO 33005KT 10SM SCT090 32/20 A3011 RMK A01
KGKT 141915Z AUTO 28004KT 10SM FEW048 BKN090 31/21 A3012 RMK A01
KGKT 141855Z AUTO VRB04KT 10SM FEW048 SCT090 32/20 A3013 RMK A01
KGKT 141835Z AUTO 33005KT 10SM SCT090 31/19 A3014 RMK A01
KGKT 141815Z AUTO 25005KT 10SM FEW050 FEW055 BKN090 31/20 A3014 RMK A01
KGKT 141755Z AUTO 00000KT 10SM SCT050 SCT055 SCT090 31/20 A3014 RMK A01
KGKT 141735Z AUTO VRB03KT 10SM FEW050 BKN090 30/21 A3015 RMK A01
KGKT 141715Z AUTO 00000KT 10SM FEW050 FEW065 BKN090 29/21 A3015 RMK A01
KGKT 141655Z AUTO 00000KT 10SM SCT060 BKN090 28/21 A3016 RMK A01
KGKT 141635Z AUTO VRB03KT 10SM SCT060 BKN080 28/22 A3017 RMK A01
KGKT 141615Z AUTO 00000KT 10SM FEW060 FEW070 BKN080 28/22 A3017 RMK A01
KGKT 141555Z AUTO VRB03KT 10SM SCT060 BKN080 BKN110 28/22 A3017 RMK A01
KGKT 141535Z AUTO 00000KT 10SM BKN055 BKN065 BKN080 27/22 A3017 RMK A01
KGKT 141515Z AUTO 00000KT 10SM OVC055 26/22 A3017 RMK A01
KGKT 141455Z AUTO 00000KT 10SM OVC055 26/22 A3018 RMK A01
KGKT 141435Z AUTO 00000KT 9SM OVC055 26/22 A3017 RMK A01
KGKT 141415Z AUTO 00000KT 10SM OVC055 26/22 A3017 RMK A01
KGKT 141355Z AUTO 00000KT 10SM BKN050 OVC060 26/22 A3017 RMK A01
KGKT 141335Z AUTO 00000KT 10SM BKN055 OVC065 26/21 A3017 RMK A01
KGKT 141315Z AUTO 00000KT 10SM BKN055 OVC070 26/21 A3017 RMK A01
KGKT 141255Z AUTO 00000KT 10SM BKN055 BKN070 BKN090 25/21 A3016 RMK A01
KGKT 141235Z AUTO 00000KT 10SM FEW060 SCT070 BKN090 25/21 A3015 RMK A01
KGKT 141215Z AUTO 00000KT 10SM BKN060 BKN075 25/21 A3015 RMK A01
KGKT 141150Z AUTO 00000KT 10SM FEW055 OVC075 24/21 A3014 RMK A01
KGKT 141135Z AUTO 00000KT 10SM SCT055 BKN070 23/21 A3014 RMK A01